Time;durP1;ratioP1;P1;durP2;ratioP2;P2;SDS_P1;SDS_P2;PMS_P1;PMS_P2;Temp;Humidity;BMP_temperature;BMP_pressure;BME280_temperature;BME280_humidity;BME280_pressure;Samples;Min_cycle;Max_cycle;Signal;HPM_P1;HPM_P2
2022/05/09 00:02:15;;;;;;;5.10;3.03;;;14.50;76.10;;;;;;5059889;28;20048;-70
2022/05/09 00:04:44;;;;;;;7.30;2.80;;;14.50;76.10;;;;;;5053088;28;20050;-70
2022/05/09 00:07:11;;;;;;;4.65;2.90;;;14.40;76.10;;;;;;5058812;28;20045;-70
2022/05/09 00:09:37;;;;;;;4.95;2.55;;;14.40;76.10;;;;;;5058652;28;20041;-69
2022/05/09 00:12:05;;;;;;;4.95;2.58;;;14.40;76.20;;;;;;5064997;28;20047;-70
2022/05/09 00:14:32;;;;;;;7.45;2.80;;;14.40;76.20;;;;;;5061308;28;20119;-70
2022/05/09 00:16:59;;;;;;;13.35;2.95;;;14.30;76.30;;;;;;5066998;28;20098;-70
2022/05/09 00:19:26;;;;;;;4.50;2.53;;;14.30;76.30;;;;;;5058255;28;20044;-70
2022/05/09 00:21:55;;;;;;;5.93;2.67;;;14.30;76.30;;;;;;5057209;28;20109;-69
2022/05/09 00:24:23;;;;;;;4.95;2.83;;;14.30;76.30;;;;;;5060564;28;20033;-69
2022/05/09 00:26:52;;;;;;;5.32;2.88;;;14.20;76.40;;;;;;5060362;28;20040;-70
2022/05/09 00:29:20;;;;;;;3.80;2.60;;;14.20;76.50;;;;;;5061131;28;20044;-69
2022/05/09 00:31:49;;;;;;;6.28;3.58;;;14.20;76.40;;;;;;5056599;28;20062;-69
2022/05/09 00:34:18;;;;;;;8.40;2.90;;;14.20;76.50;;;;;;5058277;28;20048;-69
2022/05/09 00:36:47;;;;;;;6.05;2.70;;;14.10;76.40;;;;;;5060088;28;20044;-70
2022/05/09 00:39:16;;;;;;;8.00;3.15;;;14.10;76.50;;;;;;5052768;28;20048;-70
2022/05/09 00:41:45;;;;;;;4.68;2.95;;;14.10;76.50;;;;;;5059245;28;20056;-69
2022/05/09 00:44:14;;;;;;;8.25;3.10;;;14.10;76.50;;;;;;5056038;28;20044;-69
2022/05/09 00:46:44;;;;;;;5.47;2.90;;;14.10;76.50;;;;;;5055851;28;20053;-70
2022/05/09 00:49:18;;;;;;;5.88;3.30;;;14.00;76.50;;;;;;5054551;28;20117;-69
2022/05/09 00:51:51;;;;;;;5.82;2.97;;;14.00;76.50;;;;;;5049563;28;20479;-70
2022/05/09 00:54:21;;;;;;;6.13;3.08;;;13.90;76.60;;;;;;5051027;28;20048;-70
2022/05/09 00:56:55;;;;;;;6.47;3.13;;;13.90;76.80;;;;;;5056420;28;20067;-70
2022/05/09 00:59:22;;;;;;;8.23;3.80;;;13.90;76.60;;;;;;5062843;28;20037;-71
2022/05/09 01:01:49;;;;;;;6.75;3.65;;;13.90;76.80;;;;;;5063502;28;20036;-72
2022/05/09 01:04:21;;;;;;;5.45;3.35;;;13.90;76.80;;;;;;5065029;28;20053;-71
2022/05/09 01:06:49;;;;;;;9.93;4.35;;;13.80;76.80;;;;;;5066158;28;20983;-70
2022/05/09 01:09:15;;;;;;;6.97;3.33;;;13.80;76.80;;;;;;5059350;28;20041;-70
2022/05/09 01:11:47;;;;;;;6.63;3.50;;;13.80;76.80;;;;;;5063540;28;20056;-71
2022/05/09 01:14:18;;;;;;;9.10;3.75;;;13.70;76.90;;;;;;5064568;28;20037;-70
2022/05/09 01:16:47;;;;;;;6.75;3.60;;;13.70;76.80;;;;;;5063025;28;20115;-70
2022/05/09 01:19:27;;;;;;;7.05;3.67;;;13.70;76.90;;;;;;5065459;28;20056;-70
2022/05/09 01:21:55;;;;;;;8.00;3.05;;;13.70;76.90;;;;;;5064773;28;20484;-70
2022/05/09 01:24:25;;;;;;;7.15;3.28;;;13.70;76.80;;;;;;5060747;28;20486;-70
2022/05/09 01:26:52;;;;;;;7.18;3.92;;;13.70;76.70;;;;;;5062242;28;20052;-70
2022/05/09 01:29:25;;;;;;;5.13;3.30;;;13.60;76.70;;;;;;5063529;28;20055;-69
2022/05/09 01:31:55;;;;;;;6.03;3.70;;;13.60;76.60;;;;;;5065831;28;20041;-70
2022/05/09 01:34:21;;;;;;;9.48;3.58;;;13.60;76.70;;;;;;5062125;28;20053;-71
2022/05/09 01:36:55;;;;;;;7.13;3.30;;;13.60;76.80;;;;;;5063382;28;20041;-71
2022/05/09 01:39:24;;;;;;;5.63;2.97;;;13.60;76.80;;;;;;5066487;28;20616;-70
2022/05/09 01:41:53;;;;;;;8.27;3.75;;;13.60;76.80;;;;;;5067339;28;20090;-70
2022/05/09 01:44:21;;;;;;;5.78;3.53;;;13.50;76.80;;;;;;5069017;28;20067;-70
2022/05/09 01:49:41;;;;;;;6.90;3.20;;;13.50;76.90;;;;;;5020910;28;20120;-71
2022/05/09 01:52:10;;;;;;;8.52;3.30;;;13.50;77.00;;;;;;5070093;28;20561;-69
2022/05/09 01:54:41;;;;;;;6.15;2.92;;;13.40;77.00;;;;;;5066610;28;20044;-71
2022/05/09 01:57:08;;;;;;;6.40;3.80;;;13.50;76.90;;;;;;5067757;28;20079;-70
2022/05/09 01:59:35;;;;;;;6.22;3.40;;;13.40;77.00;;;;;;5070092;28;20051;-70
2022/05/09 02:02:08;;;;;;;6.45;3.40;;;13.30;77.20;;;;;;5063388;28;20517;-71
2022/05/09 02:04:38;;;;;;;6.72;3.17;;;13.30;77.20;;;;;;5066965;28;20067;-70
2022/05/09 02:07:05;;;;;;;6.25;3.30;;;13.30;77.20;;;;;;5068060;28;20131;-69
2022/05/09 02:09:32;;;;;;;7.75;3.63;;;13.40;77.10;;;;;;5069486;28;20056;-70
2022/05/09 02:12:01;;;;;;;6.32;3.42;;;13.30;77.10;;;;;;5068666;28;20065;-70
2022/05/09 02:14:28;;;;;;;5.63;3.03;;;13.20;77.20;;;;;;5069238;28;20040;-69
2022/05/09 02:16:55;;;;;;;6.00;3.20;;;13.20;77.20;;;;;;5069700;28;20037;-69
2022/05/09 02:19:22;;;;;;;8.65;3.45;;;13.20;77.30;;;;;;5068598;28;20151;-70
2022/05/09 02:21:49;;;;;;;7.50;3.47;;;13.20;77.20;;;;;;5066912;28;20641;-70
2022/05/09 02:24:15;;;;;;;7.22;3.08;;;13.20;77.10;;;;;;5069221;28;20045;-70
2022/05/09 02:26:43;;;;;;;5.10;3.05;;;13.20;77.10;;;;;;5068730;28;20493;-69
2022/05/09 02:29:12;;;;;;;6.80;3.53;;;13.20;76.90;;;;;;5069461;28;20090;-70
2022/05/09 02:31:39;;;;;;;7.00;3.38;;;13.20;77.00;;;;;;5069891;28;20045;-70
2022/05/09 02:34:06;;;;;;;8.43;4.05;;;13.20;77.10;;;;;;5067315;28;20606;-70
2022/05/09 02:36:33;;;;;;;9.18;3.60;;;13.20;77.10;;;;;;5069995;28;20036;-71
2022/05/09 02:39:00;;;;;;;6.78;3.58;;;13.20;77.20;;;;;;5069510;28;20048;-71
2022/05/09 02:41:26;;;;;;;6.65;3.60;;;13.10;77.30;;;;;;5066984;28;20448;-71
2022/05/09 02:43:53;;;;;;;6.35;3.08;;;13.10;77.20;;;;;;5066826;28;20043;-69
2022/05/09 02:46:22;;;;;;;6.50;3.42;;;13.10;77.20;;;;;;5068665;28;20067;-70
2022/05/09 02:48:49;;;;;;;5.97;3.10;;;13.10;77.30;;;;;;5068643;28;20041;-71
2022/05/09 02:51:17;;;;;;;7.10;3.90;;;13.00;77.30;;;;;;5069020;28;20055;-70
2022/05/09 02:53:43;;;;;;;7.22;3.28;;;13.00;77.40;;;;;;5051376;28;20410;-70
2022/05/09 02:56:11;;;;;;;6.93;3.65;;;12.90;77.30;;;;;;5068387;28;20036;-69
2022/05/09 02:58:38;;;;;;;8.02;3.25;;;12.90;77.30;;;;;;5069883;28;20076;-70
2022/05/09 03:01:05;;;;;;;5.40;2.88;;;12.90;77.40;;;;;;5065197;28;20036;-70
2022/05/09 03:06:18;;;;;;;5.40;2.90;;;12.80;77.40;;;;;;5067264;28;20426;-70
2022/05/09 03:08:45;;;;;;;7.40;3.47;;;12.80;77.40;;;;;;5069769;28;20145;-71
2022/05/09 03:11:12;;;;;;;5.53;3.10;;;12.80;77.60;;;;;;5069035;28;20040;-70
2022/05/09 03:13:39;;;;;;;8.07;3.58;;;12.70;77.70;;;;;;5069362;28;20037;-71
2022/05/09 03:16:07;;;;;;;8.15;3.40;;;12.70;77.70;;;;;;5069415;28;20437;-71
2022/05/09 03:18:35;;;;;;;8.05;3.65;;;12.70;77.60;;;;;;5060086;28;20048;-71
2022/05/09 03:21:02;;;;;;;6.07;3.08;;;12.70;77.60;;;;;;5069018;28;20135;-70
2022/05/09 03:23:32;;;;;;;6.85;3.38;;;12.70;77.40;;;;;;5065309;28;20053;-70
2022/05/09 03:25:59;;;;;;;5.78;3.08;;;12.70;77.50;;;;;;5053730;28;20055;-71
2022/05/09 03:28:29;;;;;;;7.30;3.40;;;12.70;77.50;;;;;;5054303;28;20063;-70
2022/05/09 03:30:59;;;;;;;6.88;3.40;;;12.70;77.50;;;;;;5064202;28;20052;-69
2022/05/09 03:33:27;;;;;;;8.68;3.70;;;12.60;77.60;;;;;;5062436;28;20417;-70
2022/05/09 03:35:56;;;;;;;8.35;3.35;;;12.60;77.60;;;;;;5062800;28;20125;-70
2022/05/09 03:38:23;;;;;;;7.55;3.75;;;12.60;77.50;;;;;;5062209;28;20406;-69
2022/05/09 03:40:50;;;;;;;8.98;3.05;;;12.60;77.50;;;;;;5062135;28;20044;-70
2022/05/09 03:43:17;;;;;;;8.15;4.10;;;12.60;77.50;;;;;;5067787;28;20045;-69
2022/05/09 03:45:47;;;;;;;6.53;3.50;;;12.60;77.40;;;;;;5064835;28;20545;-71
2022/05/09 03:48:14;;;;;;;9.40;3.67;;;12.50;77.40;;;;;;5064372;28;20107;-71
2022/05/09 03:50:41;;;;;;;6.57;3.17;;;12.50;77.50;;;;;;5051627;28;20044;-70
2022/05/09 03:53:09;;;;;;;5.53;3.35;;;12.40;77.50;;;;;;5068365;28;20428;-70
2022/05/09 03:55:36;;;;;;;7.22;3.40;;;12.40;77.50;;;;;;5066548;28;20048;-71
2022/05/09 03:58:07;;;;;;;7.30;3.45;;;12.50;77.50;;;;;;5067855;28;20501;-69
2022/05/09 04:00:35;;;;;;;5.97;3.30;;;12.40;77.50;;;;;;5059490;28;20059;-68
2022/05/09 04:03:05;;;;;;;6.53;3.70;;;12.40;77.60;;;;;;5057468;28;20044;-71
2022/05/09 04:05:33;;;;;;;5.63;2.92;;;12.40;77.70;;;;;;5060532;28;20044;-70
2022/05/09 04:08:03;;;;;;;6.97;3.13;;;12.40;77.70;;;;;;5057840;28;20075;-70
2022/05/09 04:10:34;;;;;;;5.00;2.80;;;12.40;77.60;;;;;;5058848;28;20045;-70
2022/05/09 04:13:02;;;;;;;7.55;3.33;;;12.40;77.70;;;;;;5065630;28;20046;-70
2022/05/09 04:18:17;;;;;;;7.13;3.75;;;12.40;77.70;;;;;;5064517;28;20079;-71
2022/05/09 04:20:44;;;;;;;8.10;3.83;;;12.30;77.90;;;;;;5064567;28;20127;-71
2022/05/09 04:23:11;;;;;;;6.47;3.22;;;12.30;78.10;;;;;;5061376;28;20623;-70
2022/05/09 04:25:39;;;;;;;7.30;3.28;;;12.30;78.10;;;;;;5063874;28;20068;-70
2022/05/09 04:28:08;;;;;;;6.55;3.20;;;12.40;78.10;;;;;;5059014;28;20052;-69
2022/05/09 04:30:38;;;;;;;6.90;2.70;;;12.40;78.00;;;;;;5060611;28;20125;-71
2022/05/09 04:33:07;;;;;;;6.47;3.15;;;12.40;77.90;;;;;;5051485;28;20168;-70
2022/05/09 04:35:34;;;;;;;7.57;3.70;;;12.40;78.00;;;;;;5043155;28;20356;-70
2022/05/09 04:38:02;;;;;;;8.15;3.55;;;12.40;78.00;;;;;;5066511;28;20037;-71
2022/05/09 04:40:31;;;;;;;6.93;3.20;;;12.40;78.00;;;;;;5060959;28;20045;-69
2022/05/09 04:43:00;;;;;;;6.55;3.17;;;12.40;78.00;;;;;;5064031;28;20462;-70
2022/05/09 04:45:29;;;;;;;9.45;3.55;;;12.50;78.10;;;;;;5063168;28;20153;-71
2022/05/09 04:47:56;;;;;;;5.80;3.28;;;12.50;77.90;;;;;;5064690;28;20040;-70
2022/05/09 04:50:26;;;;;;;5.60;3.28;;;12.50;78.00;;;;;;5067008;28;20479;-70
2022/05/09 04:52:54;;;;;;;6.00;3.17;;;12.50;78.00;;;;;;5065547;28;20090;-70
2022/05/09 04:55:21;;;;;;;5.95;3.40;;;12.60;78.00;;;;;;5062983;28;20039;-69
2022/05/09 04:57:49;;;;;;;6.95;3.20;;;12.60;77.90;;;;;;5068429;28;20413;-69
2022/05/09 05:00:20;;;;;;;8.52;3.63;;;12.60;77.90;;;;;;5067295;28;20320;-69
2022/05/09 05:02:47;;;;;;;6.30;3.47;;;12.60;78.00;;;;;;5063426;28;20052;-69
2022/05/09 05:05:14;;;;;;;7.00;3.30;;;12.60;78.00;;;;;;5062275;28;20052;-70
2022/05/09 05:07:42;;;;;;;8.18;3.63;;;12.70;78.00;;;;;;5060820;28;20044;-70
2022/05/09 05:10:10;;;;;;;7.72;3.33;;;12.70;78.10;;;;;;5063618;28;20456;-71
2022/05/09 05:12:37;;;;;;;6.57;3.38;;;12.70;78.20;;;;;;5063669;28;20049;-72
2022/05/09 05:15:05;;;;;;;6.53;3.25;;;12.70;78.20;;;;;;5069854;28;20095;-70
2022/05/09 05:17:34;;;;;;;7.93;3.00;;;12.80;78.20;;;;;;5070687;28;20044;-71
2022/05/09 05:20:02;;;;;;;7.95;3.55;;;12.80;78.30;;;;;;5069095;28;20044;-71
2022/05/09 05:22:29;;;;;;;7.22;3.45;;;12.80;78.30;;;;;;5070582;28;20048;-70
2022/05/09 05:24:56;;;;;;;7.53;4.13;;;12.90;78.50;;;;;;5064907;28;20044;-71
2022/05/09 05:27:23;;;;;;;7.22;3.15;;;12.90;78.40;;;;;;5064388;28;20045;-71
2022/05/09 05:29:55;;;;;;;6.97;3.38;;;12.90;78.40;;;;;;5069741;28;20084;-70
2022/05/09 05:32:24;;;;;;;6.97;3.47;;;13.00;78.40;;;;;;5070632;28;20049;-71
2022/05/09 05:34:53;;;;;;;5.85;3.08;;;13.00;78.30;;;;;;5070761;28;20119;-70
2022/05/09 05:37:20;;;;;;;6.03;3.50;;;13.10;78.30;;;;;;5065552;28;20047;-72
2022/05/09 05:39:48;;;;;;;6.35;3.15;;;13.10;78.30;;;;;;5067497;28;20052;-71
2022/05/09 05:42:17;;;;;;;7.68;2.97;;;13.20;78.20;;;;;;5068670;28;20041;-70
2022/05/09 05:44:45;;;;;;;5.43;2.92;;;13.20;78.20;;;;;;5067203;28;20057;-70
2022/05/09 05:47:15;;;;;;;5.85;3.00;;;13.20;78.20;;;;;;5047515;28;20048;-70
2022/05/09 05:49:43;;;;;;;7.72;3.28;;;13.20;78.10;;;;;;5068928;28;20039;-70
2022/05/09 05:52:12;;;;;;;5.75;3.00;;;13.20;78.10;;;;;;5066634;28;20045;-70
2022/05/09 05:54:41;;;;;;;6.47;3.08;;;13.20;78.30;;;;;;5066868;28;20148;-71
2022/05/09 05:57:16;;;;;;;6.32;3.10;;;13.20;78.30;;;;;;5069130;28;20040;-71
2022/05/09 05:59:48;;;;;;;6.10;2.67;;;13.20;78.40;;;;;;5069195;28;20036;-71
2022/05/09 06:02:15;;;;;;;7.15;2.70;;;13.30;78.50;;;;;;5067319;28;20047;-70
2022/05/09 06:04:42;;;;;;;8.77;3.03;;;13.30;78.60;;;;;;5068971;28;20036;-69
2022/05/09 06:07:12;;;;;;;8.45;3.33;;;13.40;78.40;;;;;;5066874;28;20045;-71
2022/05/09 06:09:39;;;;;;;;;;;13.40;78.30;;;;;;5069856;28;20069;-70
2022/05/09 06:12:08;;;;;;;9.93;2.90;;;13.50;78.30;;;;;;5068900;28;19920;-70
2022/05/09 06:14:35;;;;;;;8.40;2.75;;;13.50;78.20;;;;;;5070759;28;20036;-70
2022/05/09 06:17:03;;;;;;;6.53;2.72;;;13.60;78.20;;;;;;5069921;28;20527;-71
2022/05/09 06:19:30;;;;;;;7.28;3.08;;;13.60;78.00;;;;;;5068972;28;20489;-71
2022/05/09 06:21:58;;;;;;;8.82;3.75;;;13.70;77.90;;;;;;5069776;28;20040;-70
2022/05/09 06:24:27;;;;;;;6.63;3.35;;;13.80;77.70;;;;;;5070819;28;20055;-70
2022/05/09 06:26:55;;;;;;;6.80;2.83;;;13.90;77.50;;;;;;5068652;28;20072;-70
2022/05/09 06:29:22;;;;;;;6.28;3.13;;;13.90;77.30;;;;;;5069707;28;20062;-70
2022/05/09 06:31:49;;;;;;;9.88;2.67;;;14.00;77.00;;;;;;5068732;28;20039;-71
2022/05/09 06:34:16;;;;;;;6.88;2.25;;;14.10;76.60;;;;;;5070871;28;20056;-70
2022/05/09 06:36:44;;;;;;;5.70;2.53;;;14.20;76.70;;;;;;5069857;28;20478;-70
2022/05/09 06:39:12;;;;;;;6.03;2.45;;;14.30;76.30;;;;;;5068500;28;20044;-70
2022/05/09 06:41:41;;;;;;;5.53;2.42;;;14.40;76.10;;;;;;5069687;28;20111;-70
2022/05/09 06:44:09;;;;;;;9.95;2.40;;;14.50;75.60;;;;;;5070250;28;20047;-70
2022/05/09 06:46:37;;;;;;;7.15;2.38;;;14.50;75.50;;;;;;5050688;28;20084;-71
2022/05/09 06:49:04;;;;;;;6.68;2.30;;;14.60;75.40;;;;;;5068317;28;20521;-70
2022/05/09 06:51:30;;;;;;;4.68;1.92;;;14.80;75.20;;;;;;5063362;28;20391;-71
2022/05/09 06:53:57;;;;;;;5.50;2.15;;;14.90;75.30;;;;;;5069367;28;20048;-71
2022/05/09 06:56:24;;;;;;;6.10;1.95;;;15.00;74.60;;;;;;5067317;28;20063;-71
2022/05/09 06:58:53;;;;;;;6.72;2.42;;;15.20;74.60;;;;;;5069383;28;20036;-69
2022/05/09 07:01:21;;;;;;;4.40;2.03;;;15.30;74.20;;;;;;5060728;28;20075;-71
2022/05/09 07:03:48;;;;;;;4.72;1.83;;;15.40;73.70;;;;;;5066649;28;20048;-70
2022/05/09 07:06:16;;;;;;;6.50;1.80;;;15.50;73.70;;;;;;5068198;28;20067;-70
2022/05/09 07:08:44;;;;;;;4.70;1.77;;;15.70;73.10;;;;;;5064180;28;20052;-69
2022/05/09 07:11:12;;;;;;;4.63;1.73;;;15.80;72.90;;;;;;5062737;28;20036;-70
2022/05/09 07:13:40;;;;;;;5.47;2.08;;;16.00;72.10;;;;;;5059797;28;20086;-70
2022/05/09 07:16:09;;;;;;;7.22;2.20;;;16.10;71.80;;;;;;5061363;28;20483;-70
2022/05/09 07:18:38;;;;;;;5.40;2.25;;;16.20;71.50;;;;;;5061313;28;20147;-70
2022/05/09 07:21:05;;;;;;;5.68;1.85;;;16.30;71.20;;;;;;5060674;28;20047;-70
2022/05/09 07:23:33;;;;;;;5.68;1.70;;;16.50;70.70;;;;;;5052085;28;20162;-70
2022/05/09 07:26:01;;;;;;;7.03;1.98;;;16.60;69.80;;;;;;5059630;28;20048;-70
2022/05/09 07:28:29;;;;;;;4.30;1.48;;;16.80;69.30;;;;;;5062107;28;20106;-70
2022/05/09 07:30:57;;;;;;;6.45;1.63;;;16.90;69.20;;;;;;5061810;28;20040;-71
2022/05/09 07:33:27;;;;;;;4.97;1.83;;;17.00;68.70;;;;;;5059601;28;20048;-70
2022/05/09 07:35:54;;;;;;;4.10;1.42;;;17.10;68.60;;;;;;5060791;28;20090;-71
2022/05/09 07:38:22;;;;;;;5.53;1.92;;;17.20;68.20;;;;;;5060830;28;20143;-70
2022/05/09 07:40:49;;;;;;;4.20;1.70;;;17.40;68.00;;;;;;5063790;28;20075;-71
2022/05/09 07:43:18;;;;;;;6.57;2.30;;;17.40;66.90;;;;;;5061049;28;20078;-71
2022/05/09 07:45:47;;;;;;;3.88;1.20;;;17.60;66.80;;;;;;5063609;28;20485;-71
2022/05/09 07:48:16;;;;;;;4.85;1.70;;;17.70;66.80;;;;;;5061760;28;20106;-70
2022/05/09 07:50:45;;;;;;;4.63;1.67;;;17.80;66.20;;;;;;5063699;28;20057;-70
2022/05/09 07:53:15;;;;;;;2.92;1.42;;;17.90;66.00;;;;;;5060065;28;20486;-71
2022/05/09 07:55:43;;;;;;;10.20;1.98;;;18.10;65.80;;;;;;5062523;28;20071;-69
2022/05/09 07:58:13;;;;;;;8.60;1.80;;;18.20;65.60;;;;;;5061064;28;20047;-68
2022/05/09 08:00:42;;;;;;;5.25;1.67;;;18.20;65.00;;;;;;5058598;28;20043;-70
2022/05/09 08:03:19;;;;;;;5.53;1.67;;;18.30;64.80;;;;;;5060225;28;20036;-70
2022/05/09 08:05:48;;;;;;;4.03;1.40;;;18.50;64.40;;;;;;5061525;28;20047;-70
2022/05/09 08:08:15;;;;;;;4.03;1.27;;;18.60;64.70;;;;;;5058248;28;20043;-71
2022/05/09 08:10:43;;;;;;;5.50;1.20;;;18.60;65.00;;;;;;5060496;28;20076;-70
2022/05/09 08:13:12;;;;;;;4.18;1.52;;;18.70;64.50;;;;;;5061996;28;20044;-70
2022/05/09 08:15:40;;;;;;;7.20;1.60;;;18.80;64.70;;;;;;5062396;28;20040;-70
2022/05/09 08:18:07;;;;;;;4.13;1.67;;;19.00;64.50;;;;;;5043417;28;20131;-70
2022/05/09 08:20:35;;;;;;;3.70;1.73;;;19.10;64.70;;;;;;5064138;28;20628;-70
2022/05/09 08:23:06;;;;;;;4.47;1.80;;;19.10;64.20;;;;;;5058797;28;20036;-71
2022/05/09 08:25:36;;;;;;;2.60;1.20;;;19.30;64.10;;;;;;5060244;28;20052;-71
2022/05/09 08:28:03;;;;;;;2.75;1.25;;;19.40;64.00;;;;;;5061534;28;20532;-70
2022/05/09 08:30:32;;;;;;;3.45;1.20;;;19.50;64.30;;;;;;5055042;28;20375;-70
2022/05/09 08:32:59;;;;;;;3.70;1.60;;;19.60;64.30;;;;;;5057917;28;20053;-70
2022/05/09 08:35:27;;;;;;;3.58;1.27;;;19.70;62.60;;;;;;5060396;28;20052;-70
2022/05/09 08:37:54;;;;;;;4.50;1.60;;;19.70;62.40;;;;;;5061377;28;20112;-70
2022/05/09 08:40:33;;;;;;;9.57;1.83;;;19.80;62.60;;;;;;5060630;28;20056;-70
2022/05/09 08:43:11;;;;;;;5.53;1.63;;;19.90;62.30;;;;;;5061797;28;20041;-70
2022/05/09 08:45:46;;;;;;;3.92;1.40;;;20.10;62.30;;;;;;5060376;28;20048;-70
2022/05/09 08:48:48;;;;;;;4.10;1.65;;;20.10;62.40;;;;;;5060597;28;20050;-71
2022/05/09 08:51:28;;;;;;;5.40;1.52;;;20.30;61.90;;;;;;5023313;28;20413;-70
2022/05/09 08:54:03;;;;;;;3.22;1.67;;;20.40;61.90;;;;;;5060229;28;20101;-71
2022/05/09 08:56:33;;;;;;;3.42;1.77;;;20.40;61.50;;;;;;5038809;28;20055;-71
2022/05/09 08:59:02;;;;;;;4.57;1.67;;;20.50;61.30;;;;;;5059693;28;20144;-71
2022/05/09 09:01:37;;;;;;;3.92;1.80;;;20.60;61.10;;;;;;5058007;28;20063;-70
2022/05/09 09:04:07;;;;;;;2.85;1.30;;;20.70;61.80;;;;;;5068860;28;20067;-71
2022/05/09 09:06:48;;;;;;;5.13;1.73;;;20.70;61.80;;;;;;5059521;28;20140;-71
2022/05/09 09:09:33;;;;;;;4.45;1.65;;;20.80;61.40;;;;;;5062656;28;20037;-71
2022/05/09 09:12:10;;;;;;;4.35;1.98;;;20.90;61.20;;;;;;5062335;28;20055;-70
2022/05/09 09:14:49;;;;;;;4.53;2.03;;;21.00;61.40;;;;;;5067026;28;20059;-71
2022/05/09 09:17:29;;;;;;;8.05;3.33;;;21.00;60.20;;;;;;5059639;28;20055;-71
2022/05/09 09:20:14;;;;;;;9.20;3.90;;;21.10;60.70;;;;;;5061317;28;21131;-70
2022/05/09 09:22:56;;;;;;;6.47;3.05;;;21.10;60.20;;;;;;5064468;28;20070;-71
2022/05/09 09:25:41;;;;;;;8.98;3.90;;;21.10;60.60;;;;;;5065131;28;20663;-72
2022/05/09 09:28:14;;;;;;;9.38;4.72;;;21.10;60.50;;;;;;5065145;28;20054;-69
2022/05/09 09:30:43;;;;;;;7.53;3.83;;;21.10;60.10;;;;;;5064957;28;20036;-70
2022/05/09 09:33:13;;;;;;;6.57;2.58;;;21.30;59.40;;;;;;5055751;28;20060;-70
2022/05/09 09:35:47;;;;;;;3.30;2.10;;;21.40;58.40;;;;;;5063504;28;20044;-70
2022/05/09 09:38:22;;;;;;;4.15;2.13;;;21.40;58.50;;;;;;5062436;28;20040;-70
2022/05/09 09:40:49;;;;;;;4.65;2.13;;;21.50;57.60;;;;;;5064297;28;20040;-70
2022/05/09 09:43:17;;;;;;;3.95;2.03;;;21.50;58.10;;;;;;5063032;28;20048;-69
2022/05/09 09:45:49;;;;;;;2.83;1.70;;;21.50;57.80;;;;;;5064474;28;20457;-70
2022/05/09 09:48:19;;;;;;;5.43;2.13;;;21.50;57.60;;;;;;5064911;28;20039;-71
2022/05/09 09:51:00;;;;;;;4.32;2.30;;;21.50;57.50;;;;;;5062902;28;20033;-70
2022/05/09 09:53:40;;;;;;;3.47;1.83;;;21.50;57.30;;;;;;5064539;28;20448;-71
2022/05/09 09:56:12;;;;;;;3.42;1.67;;;21.60;57.10;;;;;;5061775;28;20135;-70
2022/05/09 09:58:42;;;;;;;5.68;2.08;;;21.60;56.70;;;;;;5064370;28;20047;-70
2022/05/09 10:01:14;;;;;;;4.25;1.88;;;21.70;56.50;;;;;;5061435;28;20040;-70
2022/05/09 10:03:42;;;;;;;4.65;1.92;;;21.70;56.90;;;;;;5063430;28;20044;-70
2022/05/09 10:06:15;;;;;;;3.95;1.63;;;21.80;56.20;;;;;;5063099;28;20539;-70
2022/05/09 10:08:44;;;;;;;3.35;1.80;;;21.80;56.50;;;;;;5064133;28;20584;-70
2022/05/09 10:11:14;;;;;;;3.88;1.63;;;21.80;57.10;;;;;;5059651;28;20119;-70
2022/05/09 10:13:45;;;;;;;;;;;21.90;56.10;;;;;;5066450;28;20097;-69
2022/05/09 10:16:14;;;;;;;2.33;1.33;;;22.00;55.10;;;;;;5064243;28;19928;-71
2022/05/09 10:18:44;;;;;;;3.95;1.50;;;21.90;55.40;;;;;;5064767;28;20053;-70
2022/05/09 10:24:47;;;;;;;5.35;2.00;;;22.00;55.40;;;;;;5067933;28;20037;-70
2022/05/09 10:26:57;;;;;;;2.35;1.50;;;22.10;55.20;;;;;;5065265;28;20066;-68
2022/05/09 10:29:29;;;;;;;3.15;1.55;;;22.10;55.00;;;;;;5067496;28;20326;-69
2022/05/09 10:32:01;;;;;;;5.88;1.85;;;22.10;55.00;;;;;;5067320;28;20486;-68
2022/05/09 10:34:36;;;;;;;4.25;1.80;;;22.10;54.90;;;;;;5067186;28;20059;-70
2022/05/09 10:37:13;;;;;;;4.65;1.58;;;22.20;55.10;;;;;;5066757;28;20111;-70
2022/05/09 10:39:45;;;;;;;5.97;1.75;;;22.30;54.90;;;;;;5061999;28;20052;-70
2022/05/09 10:42:16;;;;;;;4.40;1.98;;;22.40;54.90;;;;;;5060945;28;20044;-70
2022/05/09 10:44:50;;;;;;;3.00;1.55;;;22.60;55.20;;;;;;5062267;28;20040;-70
2022/05/09 10:47:26;;;;;;;3.63;1.92;;;22.60;54.10;;;;;;5055409;28;22126;-70
2022/05/09 10:50:02;;;;;;;5.10;2.13;;;22.70;54.90;;;;;;5056094;28;20128;-70
2022/05/09 10:52:41;;;;;;;4.13;1.63;;;22.90;54.40;;;;;;5053920;28;20044;-70
2022/05/09 10:55:18;;;;;;;3.70;2.35;;;22.90;53.30;;;;;;5059602;28;20040;-70
2022/05/09 10:57:48;;;;;;;6.88;3.95;;;22.80;53.30;;;;;;5061795;28;20045;-69
2022/05/09 11:00:20;;;;;;;8.45;3.65;;;22.80;53.80;;;;;;5054066;28;20363;-71
2022/05/09 11:02:59;;;;;;;7.30;4.20;;;22.70;53.40;;;;;;5066830;28;20033;-70
2022/05/09 11:05:36;;;;;;;7.65;4.88;;;22.80;53.50;;;;;;5067677;28;20049;-69
2022/05/09 11:08:19;;;;;;;9.30;4.90;;;22.90;53.10;;;;;;5068931;28;20040;-70
2022/05/09 11:10:54;;;;;;;6.50;3.75;;;23.10;53.20;;;;;;5067620;28;20044;-70
2022/05/09 11:13:27;;;;;;;5.15;3.20;;;23.20;52.70;;;;;;5063494;28;20051;-70
2022/05/09 11:16:11;;;;;;;5.72;2.50;;;23.30;51.90;;;;;;5062265;28;20464;-70
2022/05/09 11:19:04;;;;;;;5.28;2.53;;;23.50;51.90;;;;;;5069688;28;20040;-70
2022/05/09 11:21:45;;;;;;;5.40;2.50;;;23.50;51.60;;;;;;5069090;28;20102;-70
2022/05/09 11:24:24;;;;;;;7.57;2.33;;;23.50;51.00;;;;;;5069900;28;20110;-69
2022/05/09 11:27:00;;;;;;;3.65;2.00;;;23.60;51.00;;;;;;5067749;28;20139;-71
2022/05/09 11:29:51;;;;;;;4.53;1.98;;;23.30;51.10;;;;;;5067838;28;20060;-70
2022/05/09 11:32:41;;;;;;;4.28;2.15;;;23.20;51.10;;;;;;5065445;28;20048;-69
2022/05/09 11:35:29;;;;;;;4.68;2.40;;;23.00;52.00;;;;;;5066379;28;20045;-71
2022/05/09 11:38:24;;;;;;;4.60;2.47;;;22.90;52.20;;;;;;5062830;28;20041;-69
2022/05/09 11:41:01;;;;;;;7.53;4.53;;;23.00;52.00;;;;;;5060480;28;20036;-70
2022/05/09 11:43:40;;;;;;;6.28;3.33;;;23.20;51.90;;;;;;5059742;28;20123;-69
2022/05/09 11:46:12;;;;;;;;;;;23.30;51.20;;;;;;5044768;28;22302;-69
2022/05/09 11:48:53;;;;;;;6.50;3.25;;;23.30;51.10;;;;;;5063739;28;19937;-71
2022/05/09 11:51:31;;;;;;;6.53;3.00;;;23.40;51.10;;;;;;5064366;28;20044;-70
2022/05/09 11:54:02;;;;;;;5.72;2.85;;;23.50;50.90;;;;;;5062741;28;20044;-71
2022/05/09 11:56:30;;;;;;;5.32;2.55;;;23.60;50.70;;;;;;5061480;28;20127;-69
2022/05/09 11:58:58;;;;;;;5.40;2.75;;;23.50;50.50;;;;;;5061779;28;20107;-69
2022/05/09 12:01:57;;;;;;;6.10;2.42;;;23.50;50.20;;;;;;5060162;28;20071;-70
2022/05/09 12:04:40;;;;;;;3.97;2.20;;;23.60;50.20;;;;;;4996358;28;20053;-70
2022/05/09 12:07:48;;;;;;;4.30;2.40;;;23.40;50.70;;;;;;5050919;28;20056;-68
2022/05/09 12:10:28;;;;;;;4.85;2.50;;;23.20;51.00;;;;;;5061987;28;20040;-69
2022/05/09 12:12:59;;;;;;;5.38;2.30;;;23.30;51.00;;;;;;5059909;28;20047;-71
2022/05/09 12:15:49;;;;;;;7.28;2.47;;;23.20;51.20;;;;;;5062125;28;20578;-70
2022/05/09 12:18:31;;;;;;;4.57;2.13;;;23.10;51.00;;;;;;5066189;28;20041;-70
2022/05/09 12:21:17;;;;;;;3.08;2.00;;;23.20;50.40;;;;;;5068094;28;20131;-70
2022/05/09 12:24:08;;;;;;;4.47;1.70;;;23.30;49.80;;;;;;5067367;28;20486;-70
2022/05/09 12:26:37;;;;;;;4.20;1.92;;;23.20;50.00;;;;;;5068480;28;20486;-70
2022/05/09 12:29:24;;;;;;;3.75;2.00;;;23.30;50.30;;;;;;5067468;28;20040;-70
2022/05/09 12:31:55;;;;;;;5.50;1.83;;;23.50;50.50;;;;;;5067418;28;20051;-70
2022/05/09 12:34:29;;;;;;;3.20;1.80;;;23.50;50.20;;;;;;5065106;28;20072;-69
2022/05/09 12:36:57;;;;;;;4.68;2.40;;;23.50;50.10;;;;;;5067605;28;20992;-70
2022/05/09 12:39:34;;;;;;;3.15;1.75;;;23.50;50.40;;;;;;5068890;28;20041;-70
2022/05/09 12:42:05;;;;;;;3.00;1.70;;;23.50;50.10;;;;;;5067792;28;20076;-70
2022/05/09 12:44:36;;;;;;;3.35;1.70;;;23.40;49.60;;;;;;5069927;28;20500;-69
2022/05/09 12:47:07;;;;;;;4.15;2.28;;;23.30;49.80;;;;;;5063981;28;20052;-71
2022/05/09 12:49:37;;;;;;;7.75;2.58;;;23.30;49.50;;;;;;5065053;28;20483;-70
2022/05/09 12:52:06;;;;;;;2.60;1.70;;;23.20;49.60;;;;;;5068378;28;20414;-70
2022/05/09 12:54:35;;;;;;;5.25;1.60;;;23.30;49.30;;;;;;5067386;28;20044;-70
2022/05/09 12:57:05;;;;;;;3.05;1.75;;;23.30;49.70;;;;;;5072411;28;20114;-70
2022/05/09 12:59:47;;;;;;;4.95;1.70;;;23.40;49.90;;;;;;5072741;28;20091;-70
2022/05/09 13:02:22;;;;;;;3.40;1.88;;;23.30;50.20;;;;;;5067130;28;20048;-69
2022/05/09 13:04:50;;;;;;;;;;;23.40;50.10;;;;;;5069351;28;20121;-70
2022/05/09 13:07:18;;;;;;;3.17;1.73;;;23.40;50.20;;;;;;5059455;28;19924;-70
2022/05/09 13:09:51;;;;;;;4.85;2.10;;;23.40;50.30;;;;;;5064022;28;20040;-71
2022/05/09 13:12:24;;;;;;;5.95;3.15;;;23.40;50.10;;;;;;5069094;28;20059;-71
2022/05/09 13:14:56;;;;;;;4.68;2.40;;;23.40;50.30;;;;;;5071273;28;20040;-70
2022/05/09 13:17:31;;;;;;;4.60;2.13;;;23.40;50.20;;;;;;5071602;28;20072;-70
2022/05/09 13:19:59;;;;;;;3.20;1.98;;;23.40;50.10;;;;;;5071890;28;20051;-70